Time;durP1;ratioP1;P1;durP2;ratioP2;P2;SDS_P1;SDS_P2;PMS_P1;PMS_P2;Temp;Humidity;BMP_temperature;BMP_pressure;BME280_temperature;BME280_humidity;BME280_pressure;Samples;Min_cycle;Max_cycle;Signal;HPM_P1;HPM_P2
2021/05/04 00:00:06;;;;;;;7.43;4.75;;;;;;;2.07;75.83;96318.91;5076904;28;20400;-85
2021/05/04 00:02:31;;;;;;;9.73;5.10;;;;;;;1.83;76.07;96257.19;5076356;28;20028;-84
2021/05/04 00:04:57;;;;;;;5.63;4.50;;;;;;;2.21;74.67;96293.84;5076364;28;20032;-84
2021/05/04 00:07:22;;;;;;;9.60;4.80;;;;;;;2.24;73.46;96325.22;5077405;28;20108;-84
2021/05/04 00:09:48;;;;;;;10.95;4.90;;;;;;;2.02;74.23;96320.09;5076087;28;20058;-84
2021/05/04 00:12:17;;;;;;;9.75;4.40;;;;;;;2.31;75.15;96360.72;5076287;28;20027;-84
2021/05/04 00:14:42;;;;;;;10.65;5.20;;;;;;;2.33;76.63;96354.94;5075828;28;20033;-85
2021/05/04 00:17:08;;;;;;;9.13;5.70;;;;;;;1.73;76.74;96281.44;5075840;28;20098;-85
2021/05/04 00:19:33;;;;;;;8.40;5.25;;;;;;;2.05;75.67;96342.66;5077143;28;20021;-84
2021/05/04 00:21:59;;;;;;;9.13;5.30;;;;;;;2.16;76.27;96353.25;5076102;28;20173;-84
2021/05/04 00:24:25;;;;;;;8.82;4.75;;;;;;;2.08;75.35;96352.59;5076031;28;20032;-84
2021/05/04 00:26:50;;;;;;;11.77;4.63;;;;;;;1.78;76.01;96305.84;5077120;28;20099;-83
2021/05/04 00:29:16;;;;;;;8.80;5.03;;;;;;;1.62;74.50;96292.28;5076995;28;20115;-84
2021/05/04 00:31:42;;;;;;;9.80;4.78;;;;;;;1.77;76.64;96322.34;5075900;28;20024;-87
2021/05/04 00:34:07;;;;;;;11.88;5.00;;;;;;;1.77;76.64;96322.34;5075891;28;20032;-84
2021/05/04 00:36:32;;;;;;;8.43;4.45;;;;;;;1.00;77.31;96224.47;5075858;28;20081;-84
2021/05/04 00:38:58;;;;;;;9.45;5.63;;;;;;;1.80;76.39;96334.91;5076002;28;20098;-85
2021/05/04 00:41:23;;;;;;;10.10;5.65;;;;;;;1.88;75.86;96351.69;5075955;28;20016;-85
2021/05/04 00:43:49;;;;;;;8.35;5.45;;;;;;;1.33;76.60;96273.06;5076815;28;20359;-85
2021/05/04 00:46:15;;;;;;;7.30;4.53;;;;;;;1.71;76.59;96313.22;5077063;28;20020;-85
2021/05/04 00:48:41;;;;;;;10.75;4.78;;;;;;;1.53;76.21;96289.31;5076876;28;20031;-85
2021/05/04 00:51:06;;;;;;;7.70;4.22;;;;;;;1.36;75.55;96266.19;5075591;28;20041;-85
2021/05/04 00:53:32;;;;;;;11.05;5.30;;;;;;;1.68;75.55;96293.34;5076836;28;20081;-85
2021/05/04 00:56:02;;;;;;;10.52;4.30;;;;;;;1.68;75.55;96293.34;5075905;28;20178;-85
2021/05/04 00:58:28;;;;;;;6.78;4.43;;;;;;;1.62;75.17;96265.50;5075831;28;20114;-85
2021/05/04 01:00:53;;;;;;;5.88;3.58;;;;;;;1.59;74.36;96274.31;5075735;28;20020;-85
2021/05/04 01:03:20;;;;;;;8.32;3.85;;;;;;;1.63;73.54;96322.50;5075661;28;20028;-85
2021/05/04 01:05:46;;;;;;;6.15;4.20;;;;;;;1.33;74.54;96286.44;5075777;28;20036;-84
2021/05/04 01:08:12;;;;;;;7.70;4.50;;;;;;;1.71;77.10;96348.81;5077670;28;20082;-86
2021/05/04 01:10:38;;;;;;;7.97;4.68;;;;;;;1.31;75.83;96270.81;5085105;28;20033;-84
2021/05/04 01:13:03;;;;;;;6.90;4.38;;;;;;;1.33;75.78;96288.38;5081015;28;20024;-85
2021/05/04 01:15:29;;;;;;;8.90;4.97;;;;;;;1.55;75.86;96300.41;5079772;28;20408;-84
2021/05/04 01:17:55;;;;;;;9.85;5.15;;;;;;;1.34;75.84;96281.88;5079546;28;20499;-84
2021/05/04 01:20:22;;;;;;;8.25;5.57;;;;;;;1.39;76.51;96295.59;5079599;28;20107;-85
2021/05/04 01:22:47;;;;;;;9.57;5.07;;;;;;;1.80;76.96;96359.03;5079545;28;20059;-85
2021/05/04 01:25:14;;;;;;;10.73;5.28;;;;;;;1.58;76.09;96350.47;5081050;28;20024;-85
2021/05/04 01:27:40;;;;;;;9.52;5.25;;;;;;;1.08;76.08;96280.59;5079723;28;20048;-85
2021/05/04 01:30:06;;;;;;;7.72;5.13;;;;;;;1.08;76.08;96280.59;5079262;28;20401;-85
2021/05/04 01:32:31;;;;;;;9.60;5.22;;;;;;;1.08;76.31;96283.28;5079413;28;20031;-85
2021/05/04 01:34:57;;;;;;;11.30;4.90;;;;;;;1.08;76.31;96283.28;5080877;28;20028;-86
2021/05/04 01:37:23;;;;;;;5.90;3.50;;;;;;;1.08;76.31;96283.28;5079628;28;20305;-86
2021/05/04 01:39:51;;;;;;;9.82;4.97;;;;;;;1.08;76.31;96283.28;5080294;28;20025;-86
2021/05/04 01:42:18;;;;;;;11.10;5.07;;;;;;;1.08;76.31;96283.28;5080292;28;20028;-85
2021/05/04 01:44:43;;;;;;;10.57;5.60;;;;;;;1.40;76.58;96328.47;5080301;28;20052;-86
2021/05/04 01:47:09;;;;;;;9.65;5.10;;;;;;;0.75;76.46;96222.06;5080192;28;20435;-85
2021/05/04 01:49:35;;;;;;;11.30;5.45;;;;;;;0.75;76.46;96222.06;5079895;28;20028;-85
2021/05/04 01:52:03;;;;;;;6.40;4.10;;;;;;;0.75;76.46;96222.06;5079987;28;20099;-85
2021/05/04 01:54:28;;;;;;;11.25;5.10;;;;;;;0.75;76.46;96222.06;5079003;28;20047;-86
2021/05/04 01:56:56;;;;;;;8.23;4.50;;;;;;;0.75;76.46;96222.06;5078799;28;20024;-86
2021/05/04 01:59:22;;;;;;;7.60;4.30;;;;;;;0.75;76.46;96222.06;5079922;28;20025;-85
2021/05/04 02:01:48;;;;;;;9.55;5.32;;;;;;;0.99;75.60;96299.78;5078815;28;20016;-85
2021/05/04 02:04:14;;;;;;;11.50;4.90;;;;;;;0.99;75.60;96299.78;5078743;28;20440;-85
2021/05/04 02:06:39;;;;;;;12.00;4.93;;;;;;;0.99;75.60;96299.78;5078716;28;20059;-85
2021/05/04 02:09:06;;;;;;;9.07;4.35;;;;;;;1.00;76.85;96301.31;5078642;28;20077;-85
2021/05/04 02:11:31;;;;;;;9.65;4.85;;;;;;;1.00;76.85;96301.31;5078581;28;20028;-85
2021/05/04 02:13:57;;;;;;;8.48;4.47;;;;;;;1.00;76.85;96301.31;5079513;28;20409;-85
2021/05/04 02:16:22;;;;;;;6.22;3.83;;;;;;;1.00;76.85;96301.31;5078550;28;20032;-85
2021/05/04 02:18:48;;;;;;;7.45;4.07;;;;;;;1.00;76.85;96301.31;5079494;28;20363;-85
2021/05/04 02:21:16;;;;;;;7.72;3.92;;;;;;;1.00;76.85;96301.31;5078591;28;20021;-86
2021/05/04 02:23:42;;;;;;;7.15;3.85;;;;;;;1.00;76.85;96301.31;5078956;28;20028;-86
2021/05/04 02:26:07;;;;;;;10.38;4.15;;;;;;;1.00;76.85;96301.31;5078379;28;20023;-86
2021/05/04 02:28:32;;;;;;;9.98;4.20;;;;;;;1.00;76.85;96301.31;5078485;28;20055;-85
2021/05/04 02:30:58;;;;;;;10.43;4.20;;;;;;;0.78;77.61;96292.69;5078309;28;20426;-85
2021/05/04 02:33:24;;;;;;;10.60;4.40;;;;;;;0.78;77.61;96292.69;5078172;28;20025;-86
2021/05/04 02:35:50;;;;;;;7.07;4.53;;;;;;;0.78;77.61;96292.69;5078194;28;20016;-86
2021/05/04 02:38:15;;;;;;;12.35;4.45;;;;;;;0.42;77.41;96250.19;5078740;28;20310;-85
2021/05/04 02:40:41;;;;;;;7.30;4.47;;;;;;;0.42;77.41;96250.19;5079108;28;20021;-85
2021/05/04 02:43:06;;;;;;;8.25;4.40;;;;;;;0.67;76.92;96294.69;5078056;28;20024;-85
2021/05/04 02:45:31;;;;;;;10.98;4.35;;;;;;;0.67;76.92;96294.69;5079134;28;20098;-85
2021/05/04 02:47:57;;;;;;;11.65;4.20;;;;;;;0.25;77.74;96254.53;5078009;28;20027;-85
2021/05/04 02:50:22;;;;;;;6.07;4.40;;;;;;;0.25;77.74;96254.53;5079015;28;20302;-85
2021/05/04 02:52:48;;;;;;;6.45;4.13;;;;;;;0.69;79.00;96308.44;5099119;28;20035;-85
2021/05/04 02:55:14;;;;;;;8.48;4.30;;;;;;;0.52;78.43;96291.38;5097996;28;20024;-85
2021/05/04 02:57:40;;;;;;;8.07;4.32;;;;;;;0.58;79.00;96281.00;5097925;28;20024;-85
2021/05/04 03:00:06;;;;;;;9.43;4.88;;;;;;;0.58;79.00;96281.00;5097949;28;20340;-85
2021/05/04 03:02:31;;;;;;;13.10;5.40;;;;;;;0.39;78.91;96260.94;5093443;28;20028;-85
2021/05/04 03:04:57;;;;;;;10.05;4.22;;;;;;;0.59;78.27;96295.91;5077648;28;20350;-85
2021/05/04 03:07:22;;;;;;;10.73;4.43;;;;;;;0.59;78.27;96295.91;5077652;28;20028;-85
2021/05/04 03:09:48;;;;;;;11.90;4.97;;;;;;;0.59;78.27;96295.91;5077092;28;20031;-85
2021/05/04 03:12:13;;;;;;;7.93;4.50;;;;;;;0.49;78.26;96284.91;5077331;28;20444;-85
2021/05/04 03:14:38;;;;;;;10.00;4.35;;;;;;;0.49;78.26;96284.91;5078466;28;20024;-85
2021/05/04 03:17:04;;;;;;;8.55;4.43;;;;;;;0.60;77.87;96324.16;5077338;28;20409;-85
2021/05/04 03:19:30;;;;;;;6.85;4.22;;;;;;;0.60;77.87;96324.16;5077269;28;20031;-86
2021/05/04 03:21:55;;;;;;;11.00;4.30;;;;;;;0.40;78.82;96300.63;5077278;28;20016;-85
2021/05/04 03:24:21;;;;;;;7.63;4.65;;;;;;;0.27;78.92;96246.13;5078219;28;20020;-86
2021/05/04 03:26:46;;;;;;;10.38;4.78;;;;;;;0.27;78.92;96246.13;5077101;28;20028;-86
2021/05/04 03:29:12;;;;;;;9.40;4.95;;;;;;;0.21;100.00;68426.72;5077037;28;20017;-86
2021/05/04 03:31:38;;;;;;;10.60;4.90;;;;;;;0.21;78.58;96212.94;5077009;28;20028;-85
2021/05/04 03:34:03;;;;;;;10.65;5.28;;;;;;;0.21;78.58;96212.94;5076608;28;20043;-86
2021/05/04 03:36:29;;;;;;;11.65;5.18;;;;;;;0.21;78.58;96212.94;5076699;28;20404;-86
2021/05/04 03:38:54;;;;;;;12.00;6.28;;;;;;;0.21;78.58;96212.94;5076933;28;20035;-86
2021/05/04 03:41:20;;;;;;;15.85;6.30;;;;;;;0.21;78.58;96212.94;5077007;28;20316;-86
2021/05/04 03:43:46;;;;;;;15.20;5.85;;;;;;;0.21;78.58;96212.94;5076840;28;20123;-86
2021/05/04 03:46:11;;;;;;;9.23;5.40;;;;;;;0.21;78.58;96212.94;5076678;28;20055;-85
2021/05/04 03:48:36;;;;;;;12.25;6.13;;;;;;;0.21;78.58;96212.94;5076667;28;20374;-85
2021/05/04 03:51:02;;;;;;;18.98;6.40;;;;;;;0.21;78.58;96212.94;5083617;28;20112;-85
2021/05/04 03:53:28;;;;;;;11.10;5.22;;;;;;;0.21;78.58;96212.94;5096971;28;20024;-85
2021/05/04 03:55:53;;;;;;;12.23;5.40;;;;;;;0.49;77.97;96228.78;5090950;28;20055;-86
2021/05/04 03:58:19;;;;;;;11.10;5.57;;;;;;;0.49;77.97;96228.78;5076485;28;20439;-85
2021/05/04 04:00:44;;;;;;;10.15;5.00;;;;;;;0.49;77.97;96228.78;5076296;28;20027;-86
2021/05/04 04:03:10;;;;;;;8.23;4.80;;;;;;;0.49;77.97;96228.78;5076506;28;20048;-86
2021/05/04 04:05:36;;;;;;;9.48;5.40;;;;;;;0.49;77.97;96228.78;5076568;28;20031;-86
2021/05/04 04:08:01;;;;;;;10.13;5.65;;;;;;;;;;5076356;28;20028;-86
2021/05/04 04:10:26;;;;;;;11.18;5.25;;;;;;;-145.61;100.00;68426.72;5076369;28;20024;-86
2021/05/04 04:12:52;;;;;;;9.63;4.68;;;;;;;0.49;77.97;96228.78;5076457;28;20027;-87
2021/05/04 04:15:18;;;;;;;11.02;5.07;;;;;;;0.49;77.97;96228.78;5076322;28;20099;-87
2021/05/04 04:17:43;;;;;;;8.70;4.53;;;;;;;0.27;78.20;96141.94;5076195;28;20055;-85
2021/05/04 04:20:09;;;;;;;12.18;6.57;;;;;;;0.27;78.20;96141.94;5076310;28;20438;-86
2021/05/04 04:22:35;;;;;;;14.40;5.95;;;;;;;0.27;78.20;96141.94;5076491;28;20297;-86
2021/05/04 04:25:03;;;;;;;11.68;6.18;;;;;;;-145.61;100.00;68426.72;5078591;28;20027;-86
2021/05/04 04:27:28;;;;;;;11.68;5.88;;;;;;;-145.61;100.00;68426.72;5076263;28;20081;-86
2021/05/04 04:29:54;;;;;;;9.85;5.30;;;;;;;-145.61;100.00;68426.72;5077180;28;20024;-86
2021/05/04 04:32:19;;;;;;;12.50;5.28;;;;;;;0.27;78.20;96141.94;5076083;28;20028;-86
2021/05/04 04:34:44;;;;;;;9.57;5.55;;;;;;;0.27;78.20;96141.94;5076235;28;20741;-85
2021/05/04 04:37:10;;;;;;;10.23;5.10;;;;;;;0.27;78.20;96141.94;5076195;28;20020;-87
2021/05/04 04:39:35;;;;;;;8.48;5.35;;;;;;;-145.61;100.00;68426.72;5076289;28;20038;-86
2021/05/04 04:42:01;;;;;;;8.02;5.32;;;;;;;-145.61;100.00;68426.72;5077295;28;20293;-87
2021/05/04 04:44:26;;;;;;;13.05;5.68;;;;;;;0.27;78.20;96141.94;5076139;28;20024;-87
2021/05/04 04:46:51;;;;;;;10.43;5.90;;;;;;;-145.61;100.00;68426.72;5075979;28;20116;-86
2021/05/04 04:49:19;;;;;;;11.50;5.90;;;;;;;0.27;78.20;96141.94;5075806;28;20119;-87
2021/05/04 04:51:46;;;;;;;12.10;8.10;;;;;;;-145.61;100.00;68426.72;5076689;28;20048;-85
2021/05/04 04:54:12;;;;;;;12.50;8.02;;;;;;;-145.61;100.00;68426.72;5075782;28;20025;-85
2021/05/04 04:56:38;;;;;;;10.23;7.03;;;;;;;0.27;78.20;96141.94;5074958;28;20055;-85
2021/05/04 04:59:05;;;;;;;9.90;6.18;;;;;;;0.27;78.20;96141.94;5075802;28;20017;-86
2021/05/04 05:01:32;;;;;;;8.80;6.32;;;;;;;0.27;78.20;96141.94;5075709;28;20021;-85
2021/05/04 05:03:57;;;;;;;14.55;6.38;;;;;;;0.27;78.20;96141.94;5075554;28;20050;-84
2021/05/04 05:06:23;;;;;;;9.88;6.75;;;;;;;0.27;78.20;96141.94;5078911;28;20051;-85
2021/05/04 05:08:51;;;;;;;11.27;6.38;;;;;;;0.27;78.20;96141.94;5095907;28;20027;-85
2021/05/04 05:11:18;;;;;;;10.63;6.25;;;;;;;0.27;78.20;96141.94;5096846;28;20031;-86
2021/05/04 05:13:45;;;;;;;9.13;6.05;;;;;;;2.54;71.21;96191.06;5095978;28;20024;-85
2021/05/04 05:16:17;;;;;;;10.60;6.63;;;;;;;2.81;72.25;96217.81;5097091;28;20072;-85
2021/05/04 05:18:42;;;;;;;7.38;5.75;;;;;;;2.95;72.41;96224.88;5096942;28;20028;-84
2021/05/04 05:21:09;;;;;;;7.63;6.13;;;;;;;2.92;72.76;96206.91;5095985;28;20031;-86
2021/05/04 05:23:35;;;;;;;8.07;5.80;;;;;;;3.09;71.01;96243.44;5095704;28;20446;-84
2021/05/04 05:26:01;;;;;;;10.32;8.07;;;;;;;2.79;72.04;96171.88;5090911;28;20028;-86
2021/05/04 05:28:27;;;;;;;8.63;6.00;;;;;;;2.51;72.45;96116.84;5075042;28;20478;-85
2021/05/04 05:30:54;;;;;;;7.57;6.78;;;;;;;3.17;71.09;96197.66;5075339;28;20036;-85
2021/05/04 05:33:20;;;;;;;7.88;7.07;;;;;;;3.38;72.35;96222.16;5076503;28;20466;-86
2021/05/04 05:35:47;;;;;;;9.02;5.72;;;;;;;3.00;71.41;96154.63;5076516;28;20029;-85
2021/05/04 05:38:12;;;;;;;7.57;5.82;;;;;;;3.15;69.43;96174.69;5075398;28;20029;-85
2021/05/04 05:40:38;;;;;;;6.18;5.00;;;;;;;3.57;69.39;96219.88;5077052;28;20319;-85
2021/05/04 05:43:03;;;;;;;10.02;5.00;;;;;;;3.81;69.79;96236.69;5076421;28;20043;-86
2021/05/04 05:45:29;;;;;;;8.45;5.50;;;;;;;3.51;69.96;96173.19;5075548;28;20473;-86
2021/05/04 05:47:54;;;;;;;7.82;4.65;;;;;;;3.41;70.39;96148.09;5075650;28;20486;-86
2021/05/04 05:50:20;;;;;;;9.38;4.97;;;;;;;3.31;68.79;96141.03;5074950;28;20425;-85
2021/05/04 05:52:45;;;;;;;8.55;4.90;;;;;;;3.54;68.65;96161.63;5077154;28;20082;-85
2021/05/04 05:55:11;;;;;;;13.50;5.32;;;;;;;3.49;69.03;96152.13;5075204;28;20017;-85
2021/05/04 05:57:37;;;;;;;9.18;4.75;;;;;;;3.28;69.14;96115.00;5075487;28;20021;-85
2021/05/04 06:00:07;;;;;;;8.18;4.85;;;;;;;4.02;69.91;96208.59;5077570;28;20060;-86
2021/05/04 06:02:32;;;;;;;7.77;5.20;;;;;;;3.60;69.44;96127.75;5084467;28;20028;-85
2021/05/04 06:04:58;;;;;;;10.93;5.45;;;;;;;3.60;68.09;96125.06;5089865;28;20123;-85
2021/05/04 06:07:23;;;;;;;6.72;4.78;;;;;;;3.74;69.00;96124.00;5085722;28;20048;-85
2021/05/04 06:09:48;;;;;;;7.93;5.10;;;;;;;4.02;69.83;96144.09;5084386;28;20032;-85
2021/05/04 06:12:14;;;;;;;7.47;4.45;;;;;;;4.05;67.77;96148.59;5097813;28;20027;-86
2021/05/04 06:14:39;;;;;;;8.93;4.40;;;;;;;3.78;66.99;96097.78;5098897;28;20023;-86
2021/05/04 06:17:05;;;;;;;9.43;5.03;;;;;;;4.57;68.05;96178.09;5090470;28;20032;-85
2021/05/04 06:19:31;;;;;;;6.07;4.90;;;;;;;3.76;67.25;96049.09;5080470;28;20112;-86
2021/05/04 06:21:56;;;;;;;9.57;4.80;;;;;;;3.97;67.32;96043.22;5079965;28;20032;-86
2021/05/04 06:24:21;;;;;;;9.40;4.50;;;;;;;4.63;66.22;96121.84;5078604;28;20320;-86
2021/05/04 06:26:47;;;;;;;7.63;4.85;;;;;;;4.72;66.22;96130.06;5078275;28;20025;-87
2021/05/04 06:29:13;;;;;;;7.97;4.55;;;;;;;4.88;65.25;96130.03;5086996;28;20015;-86
2021/05/04 06:31:38;;;;;;;9.80;5.15;;;;;;;4.70;66.42;96074.00;5096622;28;20028;-86
2021/05/04 06:34:05;;;;;;;9.23;5.22;;;;;;;4.66;65.67;96045.69;5078035;28;20032;-86
2021/05/04 06:36:31;;;;;;;9.48;5.80;;;;;;;4.88;66.84;96048.53;5078225;28;20118;-86
2021/05/04 06:38:56;;;;;;;11.98;5.72;;;;;;;5.24;65.37;96092.13;5081880;28;20171;-86
2021/05/04 06:41:22;;;;;;;9.05;5.53;;;;;;;5.15;64.98;96073.16;5092499;28;20031;-85
2021/05/04 06:43:47;;;;;;;9.68;4.95;;;;;;;5.02;65.28;96029.31;5078176;28;20109;-86
2021/05/04 06:46:13;;;;;;;11.48;4.90;;;;;;;5.10;62.81;96035.97;5078205;28;20474;-86
2021/05/04 06:48:39;;;;;;;10.70;5.00;;;;;;;5.62;63.63;96085.28;5081341;28;20028;-86
2021/05/04 06:51:04;;;;;;;8.07;4.88;;;;;;;5.88;63.77;96096.81;5078166;28;20091;-86
2021/05/04 06:53:30;;;;;;;7.22;4.55;;;;;;;5.67;61.29;96047.75;5078929;28;20024;-86
2021/05/04 06:55:55;;;;;;;6.43;4.00;;;;;;;6.22;60.42;96121.16;5078088;28;20028;-87
2021/05/04 06:58:20;;;;;;;6.05;4.85;;;;;;;6.22;60.20;96110.38;5078171;28;20036;-86
2021/05/04 07:00:46;;;;;;;9.85;4.95;;;;;;;5.50;59.87;95981.72;5077761;28;20024;-86
2021/05/04 07:03:12;;;;;;;7.50;4.05;;;;;;;5.99;61.02;96043.31;5080310;28;20063;-86
2021/05/04 07:05:37;;;;;;;7.53;4.38;;;;;;;6.53;59.88;96082.78;5085959;28;20417;-84
2021/05/04 07:08:04;;;;;;;7.35;4.00;;;;;;;6.32;59.85;96024.16;5083460;28;20031;-85
2021/05/04 07:10:30;;;;;;;6.43;3.90;;;;;;;6.20;57.29;96012.97;5087825;28;20119;-85
2021/05/04 07:12:55;;;;;;;6.38;4.72;;;;;;;6.58;58.26;96060.63;5090256;28;20052;-85
2021/05/04 07:15:21;;;;;;;8.63;4.50;;;;;;;6.74;59.07;96040.81;5079007;28;20028;-85
2021/05/04 07:17:47;;;;;;;6.45;4.03;;;;;;;6.77;59.00;96019.09;5077504;28;20016;-86
2021/05/04 07:20:18;;;;;;;6.47;4.40;;;;;;;6.72;58.55;95989.97;5077470;28;20031;-85
2021/05/04 07:22:43;;;;;;;;;;;;;;;7.31;57.19;96047.59;5078036;28;20078;-85
2021/05/04 07:25:10;;;;;;;15.52;4.20;;;;;;;6.84;55.78;95953.28;5085658;28;19913;-85
2021/05/04 07:27:35;;;;;;;7.90;3.80;;;;;;;7.23;55.27;95986.19;5077044;28;20109;-85
2021/05/04 07:30:01;;;;;;;8.32;3.90;;;;;;;7.76;54.94;96042.81;5078220;28;20408;-86
2021/05/04 07:32:27;;;;;;;9.35;4.18;;;;;;;7.91;53.68;96030.25;5078067;28;20093;-85
2021/05/04 07:34:53;;;;;;;9.57;4.18;;;;;;;7.48;53.14;95939.28;5077056;28;20020;-85
2021/05/04 07:37:19;;;;;;;7.63;4.75;;;;;;;8.22;53.91;96026.69;5077212;28;20024;-85
2021/05/04 07:39:44;;;;;;;5.78;4.30;;;;;;;8.15;52.36;95989.88;5077177;28;20324;-85
2021/05/04 07:42:11;;;;;;;14.32;8.10;;;;;;;8.08;51.93;95960.41;5077117;28;20017;-85
2021/05/04 07:44:37;;;;;;;7.10;4.97;;;;;;;8.22;53.89;95959.06;5076621;28;20032;-85
2021/05/04 07:47:03;;;;;;;4.50;3.80;;;;;;;8.34;53.05;95947.31;5076600;28;20028;-85
2021/05/04 07:49:42;;;;;;;8.05;3.97;;;;;;;8.75;52.50;95973.03;5060981;28;20170;-85
2021/05/04 07:52:08;;;;;;;6.60;4.07;;;;;;;8.81;52.82;95952.25;5076325;28;20401;-85
2021/05/04 07:54:34;;;;;;;10.07;7.07;;;;;;;8.92;50.05;95947.09;5077620;28;20085;-86
2021/05/04 07:56:59;;;;;;;4.90;3.65;;;;;;;9.30;48.08;95977.53;5076726;28;20029;-85
2021/05/04 07:59:25;;;;;;;6.97;3.63;;;;;;;9.15;48.22;95955.75;5077816;28;20024;-85
2021/05/04 08:01:50;;;;;;;5.20;3.67;;;;;;;9.23;48.15;95919.00;5086119;28;20320;-86
2021/05/04 08:04:16;;;;;;;6.00;3.83;;;;;;;9.46;48.42;95922.94;5076499;28;20024;-85
2021/05/04 08:06:42;;;;;;;6.50;3.72;;;;;;;9.50;46.30;95903.81;5073478;28;20496;-84
2021/05/04 08:09:08;;;;;;;6.45;3.47;;;;;;;9.78;45.80;95945.81;5079298;28;20028;-85
2021/05/04 08:11:43;;;;;;;4.38;3.40;;;;;;;9.74;47.04;95923.53;5077982;28;20035;-85
2021/05/04 08:14:10;;;;;;;5.70;3.33;;;;;;;9.93;46.74;95930.34;5073149;28;20131;-85
2021/05/04 08:16:35;;;;;;;4.95;3.50;;;;;;;9.85;47.08;95899.34;5079026;28;20020;-86
2021/05/04 08:19:01;;;;;;;3.65;3.22;;;;;;;10.36;45.98;95952.63;5088471;28;20034;-86
2021/05/04 08:21:33;;;;;;;8.32;3.67;;;;;;;10.25;46.93;95909.00;5092297;28;20085;-85
2021/05/04 08:23:59;;;;;;;4.38;3.13;;;;;;;10.43;46.24;95925.13;5076511;28;20035;-85
2021/05/04 08:26:25;;;;;;;6.32;3.63;;;;;;;10.42;44.28;95912.03;5076307;28;20021;-85
2021/05/04 08:28:52;;;;;;;5.35;3.88;;;;;;;10.43;44.21;95916.97;5077272;28;20107;-86
2021/05/04 08:31:17;;;;;;;4.82;3.40;;;;;;;11.06;44.48;95982.00;5076130;28;20032;-85
2021/05/04 08:33:43;;;;;;;5.93;3.70;;;;;;;10.30;44.19;95859.50;5077770;28;20024;-85
2021/05/04 08:36:08;;;;;;;7.57;4.30;;;;;;;10.88;43.99;95920.47;5096086;28;20404;-86
2021/05/04 08:38:34;;;;;;;6.10;4.68;;;;;;;11.02;44.79;95932.53;5076981;28;20036;-85
2021/05/04 08:41:02;;;;;;;10.23;6.68;;;;;;;11.04;45.31;95924.66;5076632;28;20104;-85
2021/05/04 08:43:32;;;;;;;10.75;5.45;;;;;;;11.02;45.30;95900.69;5081349;28;20133;-86
2021/05/04 08:45:59;;;;;;;6.82;4.18;;;;;;;11.21;44.35;95911.31;5077359;28;20025;-86
2021/05/04 08:48:27;;;;;;;8.07;3.65;;;;;;;11.21;42.93;95903.91;5088140;28;20048;-85
2021/05/04 08:50:54;;;;;;;4.68;3.47;;;;;;;11.37;45.24;95910.06;5075356;28;20448;-86
2021/05/04 08:53:20;;;;;;;6.45;3.40;;;;;;;11.27;43.56;95912.91;5095543;28;20023;-86
2021/05/04 08:55:46;;;;;;;7.85;3.60;;;;;;;11.35;42.72;95915.25;5096171;28;20115;-86
2021/05/04 08:58:11;;;;;;;4.30;2.92;;;;;;;11.20;45.07;95874.50;5094908;28;20023;-85
2021/05/04 09:00:37;;;;;;;5.53;3.35;;;;;;;11.95;44.02;95944.50;5088979;28;20416;-86
2021/05/04 09:05:39;;;;;;;7.70;4.20;;;;;;;11.93;41.60;95938.03;5077454;28;20115;-86
2021/05/04 09:08:11;;;;;;;8.48;3.40;;;;;;;11.92;44.02;95904.63;5086823;28;20023;-86
2021/05/04 09:10:50;;;;;;;7.20;3.72;;;;;;;12.33;43.25;95920.94;5075818;28;20039;-85
2021/05/04 09:13:26;;;;;;;5.57;2.90;;;;;;;12.35;42.55;95923.16;5075907;28;20028;-87
2021/05/04 09:21:13;;;;;;;9.00;2.97;;;;;;;12.60;40.44;95911.53;5095256;28;20078;-86
2021/05/04 09:23:43;;;;;;;4.82;3.50;;;;;;;12.69;42.26;95905.94;5075659;28;20034;-86
2021/05/04 09:26:20;;;;;;;7.50;3.53;;;;;;;12.73;42.14;95881.94;5075481;28;20016;-86
2021/05/04 09:28:50;;;;;;;7.47;3.10;;;;;;;12.55;40.14;95860.47;5075043;28;20139;-86
2021/05/04 09:31:27;;;;;;;5.57;2.95;;;;;;;12.95;41.95;95900.44;5091012;28;20024;-86
2021/05/04 09:33:53;;;;;;;8.82;2.85;;;;;;;13.10;43.62;95892.09;5078762;28;20128;-87
2021/05/04 09:36:40;;;;;;;7.13;3.50;;;;;;;13.12;41.22;95884.22;5088126;28;20020;-86
2021/05/04 09:39:07;;;;;;;4.47;2.90;;;;;;;12.92;41.98;95843.44;5086732;28;20028;-85
2021/05/04 09:41:32;;;;;;;4.10;2.63;;;;;;;12.80;42.56;95816.09;5079516;28;20017;-87
2021/05/04 09:43:58;;;;;;;4.13;2.80;;;;;;;12.77;40.35;95816.31;5081050;28;20040;-86
2021/05/04 09:46:49;;;;;;;3.85;2.72;;;;;;;13.03;41.19;95832.59;5087593;28;21310;-85
2021/05/04 09:49:35;;;;;;;6.57;3.00;;;;;;;13.05;39.78;95816.50;5079846;28;20036;-85
2021/05/04 09:52:30;;;;;;;4.47;2.80;;;;;;;13.49;40.98;95862.41;5091711;28;20032;-86
2021/05/04 09:55:18;;;;;;;4.13;2.80;;;;;;;13.35;41.04;95816.94;5091281;28;20032;-85
2021/05/04 09:57:43;;;;;;;3.60;3.05;;;;;;;13.74;40.10;95843.63;5061350;28;20024;-86
2021/05/04 10:00:17;;;;;;;3.22;2.70;;;;;;;13.40;40.92;95802.59;5078610;28;20041;-86
2021/05/04 10:02:43;;;;;;;6.45;3.53;;;;;;;13.80;38.75;95852.63;5077467;28;20020;-85
2021/05/04 10:05:15;;;;;;;24.45;15.15;;;;;;;13.66;41.38;95809.88;5082462;28;20078;-85
2021/05/04 10:07:41;;;;;;;9.25;4.57;;;;;;;14.21;40.01;95852.22;5077591;28;20430;-85
2021/05/04 10:10:10;;;;;;;9.20;3.83;;;;;;;14.46;41.01;95839.59;5087704;28;20416;-86
2021/05/04 10:12:40;;;;;;;3.00;2.60;;;;;;;14.03;39.78;95785.19;5077180;28;20327;-85
2021/05/04 10:15:08;;;;;;;7.97;3.22;;;;;;;14.15;39.32;95787.41;5088064;28;20293;-85
2021/05/04 10:17:35;;;;;;;7.20;3.08;;;;;;;14.06;38.08;95774.03;5080985;28;20063;-86
2021/05/04 10:20:04;;;;;;;5.85;2.80;;;;;;;14.38;38.98;95779.22;5098788;28;20027;-85
2021/05/04 10:22:30;;;;;;;4.65;2.58;;;;;;;14.63;40.09;95796.66;5098770;28;20027;-85
2021/05/04 10:24:57;;;;;;;4.25;2.63;;;;;;;14.54;39.25;95781.28;5098435;28;20032;-86
2021/05/04 10:27:23;;;;;;;5.90;2.20;;;;;;;15.17;39.66;95816.22;5093770;28;20035;-85
2021/05/04 10:29:51;;;;;;;3.95;2.42;;;;;;;15.06;36.65;95813.50;5096286;28;20032;-85
2021/05/04 10:32:49;;;;;;;5.82;2.50;;;;;;;15.25;37.06;95807.50;5098794;28;20107;-86
2021/05/04 10:35:32;;;;;;;4.28;2.53;;;;;;;15.34;36.51;95799.00;5057257;28;20036;-85
2021/05/04 10:38:08;;;;;;;3.10;2.22;;;;;;;15.51;38.31;95801.72;5095744;28;20028;-86
2021/05/04 10:40:37;;;;;;;3.67;2.35;;;;;;;15.41;35.64;95762.94;5073832;28;20166;-85
2021/05/04 10:43:22;;;;;;;4.65;2.80;;;;;;;15.76;35.93;95788.94;5085758;28;20024;-85
2021/05/04 10:45:58;;;;;;;5.35;2.40;;;;;;;15.80;36.90;95749.09;5083038;28;20030;-85
2021/05/04 10:48:48;;;;;;;4.28;2.38;;;;;;;16.23;34.91;95787.66;5101689;28;20036;-84
2021/05/04 10:51:18;;;;;;;4.85;2.47;;;;;;;16.02;35.82;95731.78;5074451;28;20049;-86
2021/05/04 10:53:53;;;;;;;2.78;2.22;;;;;;;16.60;34.96;95788.38;5078031;28;20036;-87
2021/05/04 10:56:33;;;;;;;3.75;2.42;;;;;;;16.26;34.48;95774.22;5080971;28;20066;-86
2021/05/04 10:58:59;;;;;;;3.63;2.38;;;;;;;15.51;34.42;95703.22;5070925;28;20063;-86
2021/05/04 11:01:24;;;;;;;3.38;2.13;;;;;;;15.73;36.49;95699.63;5080465;28;20040;-87
2021/05/04 11:03:52;;;;;;;6.22;2.78;;;;;;;16.26;35.13;95733.84;5093827;28;20024;-86
2021/05/04 11:06:23;;;;;;;6.63;2.50;;;;;;;16.87;34.04;95768.22;5092632;28;20024;-87
2021/05/04 11:08:48;;;;;;;3.83;2.30;;;;;;;16.44;34.99;95768.09;5080106;28;20037;-87
2021/05/04 11:14:02;;;;;;;2.75;1.70;;;;;;;16.63;33.74;95762.72;5075278;28;20029;-87
2021/05/04 11:16:45;;;;;;;3.45;1.90;;;;;;;16.67;33.51;95711.06;5078754;28;20031;-87
2021/05/04 11:19:13;;;;;;;3.17;1.70;;;;;;;17.12;33.07;95703.16;5077652;28;20119;-88
2021/05/04 11:21:43;;;;;;;2.53;1.80;;;;;;;17.37;34.44;95686.66;5058151;28;20043;-87
2021/05/04 11:24:36;;;;;;;3.53;2.15;;;;;;;17.93;34.32;95735.31;5070088;28;20336;-87
2021/05/04 11:27:05;;;;;;;2.40;1.60;;;;;;;18.27;36.08;95747.31;5077298;28;20085;-87
2021/05/04 11:29:30;;;;;;;2.88;1.98;;;;;;;18.01;33.29;95738.97;5081027;28;20487;-87
2021/05/04 11:32:08;;;;;;;2.03;1.65;;;;;;;17.73;34.72;95679.66;5086387;28;20108;-87
2021/05/04 11:34:39;;;;;;;3.72;1.95;;;;;;;17.62;33.99;95674.31;5078327;28;20022;-86
2021/05/04 11:37:12;;;;;;;2.22;1.63;;;;;;;17.82;34.47;95640.09;5071295;28;20325;-88
2021/05/04 11:39:59;;;;;;;4.28;2.10;;;;;;;18.47;35.18;95715.00;5082570;28;20028;-89
2021/05/04 11:42:44;;;;;;;4.05;2.13;;;;;;;18.08;33.14;95641.47;5067793;28;20447;-87
2021/05/04 11:45:17;;;;;;;4.00;1.83;;;;;;;18.57;32.85;95705.81;5069860;28;20033;-88
2021/05/04 11:47:50;;;;;;;3.42;2.60;;;;;;;18.94;33.10;95703.47;5060714;28;20036;-87